createdAt,value
2022-11-30T00:02:55.354Z,-1.42
2022-11-30T00:06:23.263Z,-1.43
2022-11-30T00:09:25.188Z,-1.44
2022-11-30T00:12:28.904Z,-1.44
2022-11-30T00:15:30.534Z,-1.44
2022-11-30T00:18:32.401Z,-1.43
2022-11-30T00:21:34.067Z,-1.43
2022-11-30T00:24:35.843Z,-1.45
2022-11-30T00:27:37.439Z,-1.50
2022-11-30T00:30:39.188Z,-1.51
2022-11-30T00:33:41.080Z,-1.50
2022-11-30T00:36:42.898Z,-1.49
2022-11-30T00:39:44.432Z,-1.47
2022-11-30T00:42:46.076Z,-1.45
2022-11-30T00:45:47.889Z,-1.43
2022-11-30T00:48:49.536Z,-1.41
2022-11-30T00:51:51.308Z,-1.40
2022-11-30T00:54:52.897Z,-1.39
2022-11-30T00:57:54.510Z,-1.41
2022-11-30T01:00:56.294Z,-1.42
2022-11-30T01:03:58.217Z,-1.44
2022-11-30T01:06:59.895Z,-1.43
2022-11-30T01:10:01.720Z,-1.43
2022-11-30T01:13:03.496Z,-1.45
2022-11-30T01:16:12.400Z,-1.44
2022-11-30T01:19:14.100Z,-1.44
2022-11-30T01:22:15.770Z,-1.43
2022-11-30T01:25:17.583Z,-1.44
2022-11-30T01:28:19.262Z,-1.43
2022-11-30T01:31:23.737Z,-1.43
2022-11-30T01:34:25.645Z,-1.44
2022-11-30T01:37:29.947Z,-1.46
2022-11-30T01:40:31.684Z,-1.47
2022-11-30T01:43:39.585Z,-1.49
2022-11-30T01:46:49.685Z,-1.48
2022-11-30T01:49:58.802Z,-1.47
2022-11-30T01:53:01.769Z,-1.49
2022-11-30T01:56:03.581Z,-1.50
2022-11-30T01:59:05.326Z,-1.48
2022-11-30T02:02:06.964Z,-1.47
2022-11-30T02:05:08.802Z,-1.48
2022-11-30T02:08:11.280Z,-1.47
2022-11-30T02:11:14.765Z,-1.46
2022-11-30T02:14:32.898Z,-1.52
2022-11-30T02:17:43.554Z,-1.52
2022-11-30T02:21:09.863Z,-1.50
2022-11-30T02:24:19.653Z,-1.47
2022-11-30T02:27:54.132Z,-1.45
2022-11-30T02:30:57.396Z,-1.44
2022-11-30T02:33:59.605Z,-1.43
2022-11-30T02:37:02.435Z,-1.41
2022-11-30T02:40:09.808Z,-1.40
2022-11-30T02:43:11.639Z,-1.38
2022-11-30T02:46:21.267Z,-1.38
2022-11-30T02:49:30.568Z,-1.40
2022-11-30T02:52:32.414Z,-1.41
2022-11-30T02:55:33.893Z,-1.41
2022-11-30T02:58:36.102Z,-1.44
2022-11-30T03:01:38.134Z,-1.49
2022-11-30T03:04:39.861Z,-1.50
2022-11-30T03:07:41.604Z,-1.56
2022-11-30T03:10:43.274Z,-1.60
2022-11-30T03:13:44.965Z,-1.62
2022-11-30T03:16:46.785Z,-1.63
2022-11-30T03:19:48.567Z,-1.64
2022-11-30T03:22:50.281Z,-1.66
2022-11-30T03:25:51.969Z,-1.68
2022-11-30T03:28:53.666Z,-1.69
2022-11-30T03:31:55.544Z,-1.69
2022-11-30T03:34:57.302Z,-1.69
2022-11-30T03:38:02.013Z,-1.70
2022-11-30T03:41:09.743Z,-1.70
2022-11-30T03:44:11.497Z,-1.70
2022-11-30T03:47:13.003Z,-1.70
2022-11-30T03:50:14.764Z,-1.70
2022-11-30T03:53:17.602Z,-1.71
2022-11-30T03:56:19.299Z,-1.72
2022-11-30T03:59:20.938Z,-1.72
2022-11-30T04:02:22.740Z,-1.74
2022-11-30T04:05:24.487Z,-1.74
2022-11-30T04:08:27.000Z,-1.77
2022-11-30T04:11:28.716Z,-1.78
2022-11-30T04:14:30.472Z,-1.81
2022-11-30T04:17:32.262Z,-1.82
2022-11-30T04:20:40.080Z,-1.83
2022-11-30T04:23:42.308Z,-1.84
2022-11-30T04:26:46.036Z,-1.84
2022-11-30T04:29:47.862Z,-1.85
2022-11-30T04:32:49.512Z,-1.83
2022-11-30T04:35:57.299Z,-1.84
2022-11-30T04:38:59.053Z,-1.83
2022-11-30T04:42:00.674Z,-1.84
2022-11-30T04:45:02.596Z,-1.87
2022-11-30T04:48:05.486Z,-1.88
2022-11-30T04:51:08.817Z,-1.88
2022-11-30T04:54:10.565Z,-1.88
2022-11-30T04:57:12.264Z,-1.89
2022-11-30T05:00:15.743Z,-1.91
2022-11-30T05:03:17.469Z,-1.91
2022-11-30T05:06:19.166Z,-1.93
2022-11-30T05:09:21.015Z,-1.95
2022-11-30T05:12:22.631Z,-1.97
2022-11-30T05:15:24.445Z,-2.04
2022-11-30T05:18:26.351Z,-2.08
2022-11-30T05:21:28.192Z,-2.07
2022-11-30T05:24:29.860Z,-2.04
2022-11-30T05:27:31.589Z,-1.97
2022-11-30T05:30:33.320Z,-1.90
2022-11-30T05:33:34.993Z,-2.06
2022-11-30T05:36:36.683Z,-2.24
2022-11-30T05:39:38.293Z,-2.30
2022-11-30T05:42:39.932Z,-2.33
2022-11-30T05:45:41.728Z,-2.33
2022-11-30T05:48:43.408Z,-2.33
2022-11-30T05:51:45.150Z,-2.34
2022-11-30T05:54:47.075Z,-2.30
2022-11-30T05:57:49.180Z,-2.32
2022-11-30T06:00:50.932Z,-2.21
2022-11-30T06:03:53.060Z,-2.14
2022-11-30T06:06:57.631Z,-2.11
2022-11-30T06:09:59.444Z,-2.09
2022-11-30T06:13:06.939Z,-2.13
2022-11-30T06:16:09.315Z,-2.14
2022-11-30T06:19:11.073Z,-2.14
2022-11-30T06:22:12.744Z,-2.18
2022-11-30T06:25:15.121Z,-2.20
2022-11-30T06:28:16.908Z,-2.17
2022-11-30T06:31:18.529Z,-2.16
2022-11-30T06:34:20.308Z,-2.14
2022-11-30T06:37:22.016Z,-2.13
2022-11-30T06:40:23.650Z,-2.08
2022-11-30T06:43:25.525Z,-2.05
2022-11-30T06:46:27.344Z,-2.04
2022-11-30T06:49:28.998Z,-2.03
2022-11-30T06:52:31.733Z,-1.99
2022-11-30T06:55:35.451Z,-1.94
2022-11-30T06:58:41.610Z,-1.89
2022-11-30T07:01:43.293Z,-1.89
2022-11-30T07:04:45.187Z,-1.92
2022-11-30T07:07:47.214Z,-1.94
2022-11-30T07:10:48.972Z,-1.93
2022-11-30T07:13:50.651Z,-1.91
2022-11-30T07:16:52.683Z,-1.91
2022-11-30T07:19:54.900Z,-1.90
2022-11-30T07:22:56.642Z,-1.87
2022-11-30T07:26:12.076Z,-1.83
2022-11-30T07:29:13.865Z,-1.83
2022-11-30T07:32:15.476Z,-1.83
2022-11-30T07:35:17.084Z,-1.82
2022-11-30T07:38:18.840Z,-1.82
2022-11-30T07:41:20.478Z,-1.80
2022-11-30T07:44:22.252Z,-1.77
2022-11-30T07:47:24.014Z,-1.75
2022-11-30T07:50:26.650Z,-1.74
2022-11-30T07:53:28.523Z,-1.72
2022-11-30T07:56:30.064Z,-1.73
2022-11-30T07:59:31.850Z,-1.72
2022-11-30T08:02:33.714Z,-1.71
2022-11-30T08:05:35.412Z,-1.69
2022-11-30T08:08:42.018Z,-1.71
2022-11-30T08:11:43.776Z,-1.71
2022-11-30T08:15:17.963Z,-1.70
2022-11-30T08:18:07.660Z,-1.69
2022-11-30T08:21:10.697Z,-1.68
2022-11-30T08:24:14.064Z,-1.66
2022-11-30T08:27:15.805Z,-1.65
2022-11-30T08:30:17.762Z,-1.64
2022-11-30T08:33:19.551Z,-1.61
2022-11-30T08:36:21.944Z,-1.55
2022-11-30T08:39:28.152Z,-1.52
2022-11-30T08:42:29.962Z,-1.48
2022-11-30T08:45:31.752Z,-1.46
2022-11-30T08:48:33.886Z,-1.42
2022-11-30T08:52:00.821Z,-1.37
2022-11-30T08:54:57.689Z,-1.35
2022-11-30T08:57:59.239Z,-1.40
2022-11-30T09:01:14.378Z,-1.41
2022-11-30T09:04:16.208Z,-1.40
2022-11-30T09:07:18.034Z,-1.41
2022-11-30T09:10:19.981Z,-1.40
2022-11-30T09:13:21.600Z,-1.39
2022-11-30T09:16:23.779Z,-1.38
2022-11-30T09:19:25.702Z,-1.34
2022-11-30T09:22:28.893Z,-1.34
2022-11-30T09:25:30.682Z,-1.33
2022-11-30T09:28:33.031Z,-1.33
2022-11-30T09:31:35.074Z,-1.32
2022-11-30T09:34:37.065Z,-1.30
2022-11-30T09:37:39.072Z,-1.26
2022-11-30T09:40:41.918Z,-1.23
2022-11-30T09:44:02.579Z,-1.23
2022-11-30T09:47:08.991Z,-1.21
2022-11-30T09:50:20.323Z,-1.19
2022-11-30T09:53:29.853Z,-1.16
2022-11-30T09:56:35.791Z,-1.14
2022-11-30T09:59:38.100Z,-1.14
2022-11-30T10:02:40.100Z,-1.13
2022-11-30T10:05:48.349Z,-1.13
2022-11-30T10:09:01.117Z,-1.13
2022-11-30T10:12:11.937Z,-1.07
2022-11-30T10:15:40.713Z,-1.03
2022-11-30T10:19:07.925Z,-1.01
2022-11-30T10:22:35.940Z,-1.02
2022-11-30T10:25:40.511Z,-1.03
2022-11-30T10:28:51.928Z,-1.02
2022-11-30T10:31:59.426Z,-0.96
2022-11-30T10:35:39.439Z,-0.88
2022-11-30T10:38:48.385Z,-0.82
2022-11-30T10:42:05.684Z,-0.77
2022-11-30T10:45:12.920Z,-0.78
2022-11-30T10:48:44.171Z,-0.84
2022-11-30T10:51:51.220Z,-0.80
2022-11-30T10:54:59.097Z,-0.73
2022-11-30T10:58:13.604Z,-0.66
2022-11-30T11:01:41.499Z,-0.61
2022-11-30T11:04:43.288Z,-0.64
2022-11-30T11:07:46.461Z,-0.60
2022-11-30T11:10:51.803Z,-0.60
2022-11-30T11:14:09.210Z,-0.57
2022-11-30T11:17:21.670Z,-0.59
2022-11-30T11:20:39.153Z,-0.63
2022-11-30T11:23:42.132Z,-0.60
2022-11-30T11:26:51.522Z,-0.53
2022-11-30T11:30:27.720Z,-0.46
2022-11-30T11:33:29.712Z,-0.45
2022-11-30T11:36:33.270Z,-0.54
2022-11-30T11:39:34.960Z,-0.63
2022-11-30T11:42:38.513Z,-0.66
2022-11-30T11:45:40.336Z,-0.67
2022-11-30T11:49:00.795Z,-0.66
2022-11-30T11:52:05.862Z,-0.69
2022-11-30T11:55:16.633Z,-0.68
2022-11-30T11:58:25.430Z,-0.66
2022-11-30T12:01:49.413Z,-0.63
2022-11-30T12:04:57.806Z,-0.61
2022-11-30T12:08:05.603Z,-0.62
2022-11-30T12:11:23.552Z,-0.65
2022-11-30T12:14:25.802Z,-0.63
2022-11-30T12:18:12.452Z,-0.59
2022-11-30T12:21:24.137Z,-0.54
2022-11-30T12:24:41.147Z,-0.56
2022-11-30T12:27:53.616Z,-0.65
2022-11-30T12:31:03.265Z,-0.70
2022-11-30T12:34:13.667Z,-0.71
2022-11-30T12:37:48.337Z,-0.71
2022-11-30T12:41:19.477Z,-0.72
2022-11-30T12:44:42.599Z,-0.73
2022-11-30T12:47:54.264Z,-0.70
2022-11-30T12:51:28.016Z,-0.68
2022-11-30T12:54:53.125Z,-0.69
2022-11-30T12:58:01.012Z,-0.68
2022-11-30T13:01:21.649Z,-0.64
2022-11-30T13:04:33.160Z,-0.60
2022-11-30T13:07:43.376Z,-0.61
2022-11-30T13:10:47.453Z,-0.63
2022-11-30T13:13:51.637Z,-0.62
2022-11-30T13:17:05.048Z,-0.61
2022-11-30T13:20:21.894Z,-0.64
2022-11-30T13:23:31.774Z,-0.64
2022-11-30T13:26:50.781Z,-0.61
2022-11-30T13:30:00.245Z,-0.62
2022-11-30T13:33:34.088Z,-0.63
2022-11-30T13:36:45.374Z,-0.65
2022-11-30T13:40:12.395Z,-0.68
2022-11-30T13:43:16.972Z,-0.69
2022-11-30T13:46:20.296Z,-0.69
2022-11-30T13:49:23.958Z,-0.68
2022-11-30T13:53:08.072Z,-0.66
2022-11-30T13:56:18.820Z,-0.63
2022-11-30T13:59:23.501Z,-0.60
2022-11-30T14:02:32.308Z,-0.58
2022-11-30T14:05:37.907Z,-0.58
2022-11-30T14:08:39.740Z,-0.60
2022-11-30T14:11:43.207Z,-0.63
2022-11-30T14:14:47.154Z,-0.64
2022-11-30T14:17:49.296Z,-0.65
2022-11-30T14:20:55.382Z,-0.64
2022-11-30T14:24:20.137Z,-0.63
2022-11-30T14:27:27.530Z,-0.62
2022-11-30T14:30:31.936Z,-0.60
2022-11-30T14:33:44.764Z,-0.59
2022-11-30T14:36:51.214Z,-0.57
2022-11-30T14:39:56.750Z,-0.56
2022-11-30T14:43:00.685Z,-0.56
2022-11-30T14:46:07.238Z,-0.59
2022-11-30T14:49:21.198Z,-0.58
2022-11-30T14:52:38.095Z,-0.57
2022-11-30T14:56:19.362Z,-0.56
2022-11-30T14:59:46.981Z,-0.57
2022-11-30T15:02:49.635Z,-0.58
2022-11-30T15:05:53.416Z,-0.58
2022-11-30T15:08:57.308Z,-0.57
2022-11-30T15:11:59.270Z,-0.57
2022-11-30T15:15:21.746Z,-0.57
2022-11-30T15:18:25.045Z,-0.57
2022-11-30T15:21:31.507Z,-0.57
2022-11-30T15:24:33.283Z,-0.56
2022-11-30T15:27:35.489Z,-0.56
2022-11-30T15:30:40.449Z,-0.56
2022-11-30T15:33:45.599Z,-0.56
2022-11-30T15:36:47.756Z,-0.61
2022-11-30T15:39:52.925Z,-0.67
2022-11-30T15:42:54.812Z,-0.70
2022-11-30T15:45:58.605Z,-0.73
2022-11-30T15:49:08.012Z,-0.75
2022-11-30T15:52:10.083Z,-0.75
2022-11-30T15:55:48.425Z,-0.76
2022-11-30T15:59:05.712Z,-0.78
2022-11-30T16:02:25.103Z,-0.79
2022-11-30T16:05:27.765Z,-0.79
2022-11-30T16:08:29.830Z,-0.78
2022-11-30T16:11:32.648Z,-0.78
2022-11-30T16:14:34.341Z,-0.78
2022-11-30T16:17:36.165Z,-0.79
2022-11-30T16:20:37.851Z,-0.79
2022-11-30T16:23:39.619Z,-0.80
2022-11-30T16:26:57.659Z,-0.82
2022-11-30T16:29:59.590Z,-0.82
2022-11-30T16:33:01.438Z,-0.82
2022-11-30T16:36:12.269Z,-0.82
2022-11-30T16:39:13.996Z,-0.82
2022-11-30T16:42:15.727Z,-0.82
2022-11-30T16:45:24.770Z,-0.82
2022-11-30T16:48:26.520Z,-0.83
2022-11-30T16:51:34.653Z,-0.82
2022-11-30T16:54:36.465Z,-0.82
2022-11-30T16:57:38.168Z,-0.82
2022-11-30T17:00:40.440Z,-0.81
2022-11-30T17:03:45.821Z,-0.80
2022-11-30T17:06:50.521Z,-0.80
2022-11-30T17:09:53.423Z,-0.79
2022-11-30T17:12:55.075Z,-0.79
2022-11-30T17:15:56.942Z,-0.79
2022-11-30T17:18:58.529Z,-0.79
2022-11-30T17:22:00.254Z,-0.79
2022-11-30T17:25:02.038Z,-0.77
2022-11-30T17:28:03.726Z,-0.75
2022-11-30T17:31:05.694Z,-0.73
2022-11-30T17:34:08.803Z,-0.70
2022-11-30T17:37:10.679Z,-0.70
2022-11-30T17:40:13.223Z,-0.71
2022-11-30T17:43:14.937Z,-0.71
2022-11-30T17:46:17.446Z,-0.73
2022-11-30T17:49:19.236Z,-0.73
2022-11-30T17:52:21.258Z,-0.74
2022-11-30T17:55:22.931Z,-0.74
2022-11-30T17:58:24.653Z,-0.74
2022-11-30T18:01:27.072Z,-0.75
2022-11-30T18:04:28.771Z,-0.75
2022-11-30T18:07:30.502Z,-0.75
2022-11-30T18:10:32.077Z,-0.76
2022-11-30T18:13:33.836Z,-0.76
2022-11-30T18:16:37.240Z,-0.76
2022-11-30T18:19:39.017Z,-0.76
2022-11-30T18:22:40.608Z,-0.76
2022-11-30T18:25:42.416Z,-0.76
2022-11-30T18:28:44.451Z,-0.77
2022-11-30T18:31:48.574Z,-0.77
2022-11-30T18:34:50.614Z,-0.78
2022-11-30T18:37:52.584Z,-0.78
2022-11-30T18:40:54.458Z,-0.78
2022-11-30T18:43:57.047Z,-0.78
2022-11-30T18:46:58.747Z,-0.79
2022-11-30T18:50:00.534Z,-0.80
2022-11-30T18:53:02.227Z,-0.94
2022-11-30T18:56:10.992Z,-0.98
2022-11-30T18:59:14.626Z,-1.00
2022-11-30T19:02:19.120Z,-1.03
2022-11-30T19:05:39.805Z,-0.99
2022-11-30T19:08:42.140Z,-0.96
2022-11-30T19:11:43.872Z,-0.94
2022-11-30T19:14:45.934Z,-1.01
2022-11-30T19:17:48.245Z,-1.13
2022-11-30T19:20:50.521Z,-1.18
2022-11-30T19:23:52.230Z,-1.15
2022-11-30T19:26:53.879Z,-1.10
2022-11-30T19:29:55.610Z,-1.00
2022-11-30T19:32:57.275Z,-0.97
2022-11-30T19:36:03.402Z,-1.12
2022-11-30T19:39:05.226Z,-1.27
2022-11-30T19:42:07.441Z,-1.38
2022-11-30T19:45:09.546Z,-1.43
2022-11-30T19:48:11.173Z,-1.41
2022-11-30T19:51:18.043Z,-1.44
2022-11-30T19:54:20.338Z,-1.46
2022-11-30T19:57:22.262Z,-1.48
2022-11-30T20:00:24.094Z,-1.48
2022-11-30T20:03:25.889Z,-1.42
2022-11-30T20:06:28.749Z,-1.35
2022-11-30T20:09:30.580Z,-1.34
2022-11-30T20:12:32.150Z,-1.30
2022-11-30T20:15:33.919Z,-1.29
2022-11-30T20:18:35.591Z,-1.25
2022-11-30T20:21:37.509Z,-1.19
2022-11-30T20:24:39.380Z,-1.16
2022-11-30T20:27:40.987Z,-1.18
2022-11-30T20:30:43.956Z,-1.31
2022-11-30T20:33:45.986Z,-1.21
2022-11-30T20:36:48.072Z,-1.07
2022-11-30T20:39:49.802Z,-1.18
2022-11-30T20:42:52.582Z,-1.35
2022-11-30T20:45:54.735Z,-1.41
2022-11-30T20:48:58.994Z,-1.47
2022-11-30T20:52:00.789Z,-1.56
2022-11-30T20:55:02.646Z,-1.58
2022-11-30T20:58:04.571Z,-1.57
2022-11-30T21:01:21.303Z,-1.55
2022-11-30T21:04:26.030Z,-1.53
2022-11-30T21:07:27.796Z,-1.48
2022-11-30T21:10:29.546Z,-1.43
2022-11-30T21:13:31.559Z,-1.41
2022-11-30T21:16:33.710Z,-1.37
2022-11-30T21:19:35.369Z,-1.32
2022-11-30T21:22:37.069Z,-1.29
2022-11-30T21:25:38.780Z,-1.32
2022-11-30T21:28:40.450Z,-1.43
2022-11-30T21:31:42.549Z,-1.31
2022-11-30T21:34:44.364Z,-1.12
2022-11-30T21:37:46.063Z,-1.12
2022-11-30T21:40:58.993Z,-1.28
2022-11-30T21:44:00.741Z,-1.40
2022-11-30T21:47:02.444Z,-1.48
2022-11-30T21:50:04.479Z,-1.52
2022-11-30T21:53:06.209Z,-1.56
2022-11-30T21:56:12.734Z,-1.58
2022-11-30T21:59:14.625Z,-1.39
2022-11-30T22:02:16.243Z,-1.25
2022-11-30T22:05:18.133Z,-1.13
2022-11-30T22:08:20.023Z,-1.04
2022-11-30T22:11:23.088Z,-0.95
2022-11-30T22:14:24.960Z,-0.87
2022-11-30T22:17:26.886Z,-0.80
2022-11-30T22:20:28.717Z,-0.74
2022-11-30T22:23:33.159Z,-0.69
2022-11-30T22:26:37.632Z,-0.66
2022-11-30T22:29:39.649Z,-0.61
2022-11-30T22:32:43.613Z,-0.57
2022-11-30T22:35:45.600Z,-0.57
2022-11-30T22:38:47.592Z,-0.56
2022-11-30T22:41:55.113Z,-0.53
2022-11-30T22:44:58.270Z,-0.52
2022-11-30T22:47:59.940Z,-0.50
2022-11-30T22:51:13.563Z,-0.48
2022-11-30T22:54:15.384Z,-0.50
2022-11-30T22:57:17.014Z,-0.52
2022-11-30T23:00:19.277Z,-0.52
2022-11-30T23:03:26.125Z,-0.51
2022-11-30T23:06:28.060Z,-0.51
2022-11-30T23:09:29.684Z,-0.51
2022-11-30T23:12:57.814Z,-0.50
2022-11-30T23:15:54.348Z,-0.48
2022-11-30T23:19:00.428Z,-0.52
2022-11-30T23:22:02.197Z,-0.52
2022-11-30T23:25:04.141Z,-0.52
2022-11-30T23:28:05.949Z,-0.53
2022-11-30T23:31:33.677Z,-0.52
2022-11-30T23:34:36.004Z,-0.50
2022-11-30T23:37:37.753Z,-0.51
2022-11-30T23:40:39.496Z,-0.53
2022-11-30T23:43:42.444Z,-0.52
2022-11-30T23:46:44.323Z,-0.51
2022-11-30T23:49:46.207Z,-0.49
2022-11-30T23:52:48.137Z,-0.46
2022-11-30T23:55:50.366Z,-0.46
2022-11-30T23:58:52.542Z,-0.48
